sensor_id;sensor_type;location;lat;lon;timestamp;P1;durP1;ratioP1;P2;durP2;ratioP2
13959;SDS011;7052;51.050;3.716;2023-02-28T00:00:53;7.20;;;4.27;;
13959;SDS011;7052;51.050;3.716;2023-02-28T00:03:20;6.00;;;4.03;;
13959;SDS011;7052;51.050;3.716;2023-02-28T00:05:46;5.53;;;4.20;;
13959;SDS011;7052;51.050;3.716;2023-02-28T00:08:16;6.07;;;3.80;;
13959;SDS011;7052;51.050;3.716;2023-02-28T00:10:45;5.30;;;4.20;;
13959;SDS011;7052;51.050;3.716;2023-02-28T00:13:13;5.20;;;4.00;;
13959;SDS011;7052;51.050;3.716;2023-02-28T00:15:41;5.10;;;4.30;;
13959;SDS011;7052;51.050;3.716;2023-02-28T00:18:10;5.30;;;4.10;;
13959;SDS011;7052;51.050;3.716;2023-02-28T00:20:40;11.33;;;6.80;;
13959;SDS011;7052;51.050;3.716;2023-02-28T00:23:11;6.10;;;4.50;;
13959;SDS011;7052;51.050;3.716;2023-02-28T00:25:39;6.63;;;4.70;;
13959;SDS011;7052;51.050;3.716;2023-02-28T00:28:07;6.50;;;4.50;;
13959;SDS011;7052;51.050;3.716;2023-02-28T00:30:34;5.63;;;4.50;;
13959;SDS011;7052;51.050;3.716;2023-02-28T00:33:00;6.00;;;4.53;;
13959;SDS011;7052;51.050;3.716;2023-02-28T00:35:28;5.13;;;4.50;;
13959;SDS011;7052;51.050;3.716;2023-02-28T00:37:57;5.40;;;4.23;;
13959;SDS011;7052;51.050;3.716;2023-02-28T00:40:24;4.83;;;4.33;;
13959;SDS011;7052;51.050;3.716;2023-02-28T00:42:58;5.97;;;4.70;;
13959;SDS011;7052;51.050;3.716;2023-02-28T00:45:27;5.73;;;4.40;;
13959;SDS011;7052;51.050;3.716;2023-02-28T00:47:54;9.27;;;4.80;;
13959;SDS011;7052;51.050;3.716;2023-02-28T00:50:21;8.43;;;4.63;;
13959;SDS011;7052;51.050;3.716;2023-02-28T00:52:48;7.20;;;4.60;;
13959;SDS011;7052;51.050;3.716;2023-02-28T00:55:16;7.13;;;4.83;;
13959;SDS011;7052;51.050;3.716;2023-02-28T00:57:43;5.63;;;4.83;;
13959;SDS011;7052;51.050;3.716;2023-02-28T01:00:12;6.20;;;4.97;;
13959;SDS011;7052;51.050;3.716;2023-02-28T01:02:41;7.37;;;4.90;;
13959;SDS011;7052;51.050;3.716;2023-02-28T01:05:08;5.73;;;4.40;;
13959;SDS011;7052;51.050;3.716;2023-02-28T01:07:38;11.33;;;5.03;;
13959;SDS011;7052;51.050;3.716;2023-02-28T01:10:06;5.43;;;4.63;;
13959;SDS011;7052;51.050;3.716;2023-02-28T01:12:33;7.40;;;4.90;;
13959;SDS011;7052;51.050;3.716;2023-02-28T01:15:00;8.57;;;4.83;;
13959;SDS011;7052;51.050;3.716;2023-02-28T01:17:29;5.60;;;4.70;;
13959;SDS011;7052;51.050;3.716;2023-02-28T01:19:58;6.97;;;4.57;;
13959;SDS011;7052;51.050;3.716;2023-02-28T01:22:25;5.53;;;4.83;;
13959;SDS011;7052;51.050;3.716;2023-02-28T01:24:52;5.60;;;4.60;;
13959;SDS011;7052;51.050;3.716;2023-02-28T01:27:19;4.77;;;4.20;;
13959;SDS011;7052;51.050;3.716;2023-02-28T01:29:46;6.13;;;4.53;;
13959;SDS011;7052;51.050;3.716;2023-02-28T01:32:13;6.17;;;4.70;;
13959;SDS011;7052;51.050;3.716;2023-02-28T01:34:44;7.07;;;5.23;;
13959;SDS011;7052;51.050;3.716;2023-02-28T01:37:11;5.50;;;4.40;;
13959;SDS011;7052;51.050;3.716;2023-02-28T01:39:38;5.80;;;5.10;;
13959;SDS011;7052;51.050;3.716;2023-02-28T01:42:05;5.00;;;4.50;;
13959;SDS011;7052;51.050;3.716;2023-02-28T01:44:55;6.00;;;5.10;;
13959;SDS011;7052;51.050;3.716;2023-02-28T01:47:28;5.13;;;4.63;;
13959;SDS011;7052;51.050;3.716;2023-02-28T01:49:59;5.10;;;4.60;;
13959;SDS011;7052;51.050;3.716;2023-02-28T01:52:30;5.50;;;4.97;;
13959;SDS011;7052;51.050;3.716;2023-02-28T01:54:59;5.73;;;4.80;;
13959;SDS011;7052;51.050;3.716;2023-02-28T01:57:30;6.73;;;5.17;;
13959;SDS011;7052;51.050;3.716;2023-02-28T02:00:06;6.07;;;5.10;;
13959;SDS011;7052;51.050;3.716;2023-02-28T02:02:36;7.30;;;5.10;;
13959;SDS011;7052;51.050;3.716;2023-02-28T02:05:06;7.40;;;4.87;;
13959;SDS011;7052;51.050;3.716;2023-02-28T02:07:37;7.37;;;5.33;;
13959;SDS011;7052;51.050;3.716;2023-02-28T02:10:09;5.67;;;5.03;;
13959;SDS011;7052;51.050;3.716;2023-02-28T02:12:51;7.53;;;5.00;;
13959;SDS011;7052;51.050;3.716;2023-02-28T02:15:32;8.00;;;5.07;;
13959;SDS011;7052;51.050;3.716;2023-02-28T02:18:04;6.37;;;5.20;;
13959;SDS011;7052;51.050;3.716;2023-02-28T02:20:49;8.20;;;5.20;;
13959;SDS011;7052;51.050;3.716;2023-02-28T02:23:44;8.50;;;5.40;;
13959;SDS011;7052;51.050;3.716;2023-02-28T02:26:31;7.37;;;5.40;;
13959;SDS011;7052;51.050;3.716;2023-02-28T02:29:21;6.93;;;5.20;;
13959;SDS011;7052;51.050;3.716;2023-02-28T02:35:24;7.07;;;5.50;;
13959;SDS011;7052;51.050;3.716;2023-02-28T02:37:55;6.63;;;5.43;;
13959;SDS011;7052;51.050;3.716;2023-02-28T02:40:35;5.97;;;5.13;;
13959;SDS011;7052;51.050;3.716;2023-02-28T02:43:06;5.70;;;4.80;;
13959;SDS011;7052;51.050;3.716;2023-02-28T02:45:37;6.03;;;5.40;;
13959;SDS011;7052;51.050;3.716;2023-02-28T02:48:09;6.20;;;5.10;;
13959;SDS011;7052;51.050;3.716;2023-02-28T02:50:41;6.37;;;4.83;;
13959;SDS011;7052;51.050;3.716;2023-02-28T02:53:14;6.10;;;4.90;;
13959;SDS011;7052;51.050;3.716;2023-02-28T02:55:46;5.70;;;5.07;;
13959;SDS011;7052;51.050;3.716;2023-02-28T02:58:20;6.33;;;5.10;;
13959;SDS011;7052;51.050;3.716;2023-02-28T03:00:52;6.47;;;5.80;;
13959;SDS011;7052;51.050;3.716;2023-02-28T03:03:28;5.67;;;5.10;;
13959;SDS011;7052;51.050;3.716;2023-02-28T03:05:59;7.53;;;5.50;;
13959;SDS011;7052;51.050;3.716;2023-02-28T03:08:33;7.60;;;4.80;;
13959;SDS011;7052;51.050;3.716;2023-02-28T03:11:06;6.20;;;4.93;;
13959;SDS011;7052;51.050;3.716;2023-02-28T03:13:45;6.13;;;5.37;;
13959;SDS011;7052;51.050;3.716;2023-02-28T03:16:29;6.00;;;5.40;;
13959;SDS011;7052;51.050;3.716;2023-02-28T03:19:12;7.60;;;5.30;;
13959;SDS011;7052;51.050;3.716;2023-02-28T03:21:54;8.90;;;5.50;;
13959;SDS011;7052;51.050;3.716;2023-02-28T03:24:32;7.07;;;5.20;;
13959;SDS011;7052;51.050;3.716;2023-02-28T03:27:06;7.57;;;5.47;;
13959;SDS011;7052;51.050;3.716;2023-02-28T03:29:37;6.97;;;5.77;;
13959;SDS011;7052;51.050;3.716;2023-02-28T03:32:11;6.77;;;5.50;;
13959;SDS011;7052;51.050;3.716;2023-02-28T03:34:47;8.03;;;5.43;;
13959;SDS011;7052;51.050;3.716;2023-02-28T03:37:20;7.10;;;5.47;;
13959;SDS011;7052;51.050;3.716;2023-02-28T03:39:51;7.13;;;5.60;;
13959;SDS011;7052;51.050;3.716;2023-02-28T03:42:21;8.53;;;5.23;;
13959;SDS011;7052;51.050;3.716;2023-02-28T03:44:52;8.50;;;5.63;;
13959;SDS011;7052;51.050;3.716;2023-02-28T03:47:22;6.27;;;5.57;;
13959;SDS011;7052;51.050;3.716;2023-02-28T03:49:55;9.67;;;6.00;;
13959;SDS011;7052;51.050;3.716;2023-02-28T03:52:27;6.20;;;5.57;;
13959;SDS011;7052;51.050;3.716;2023-02-28T03:54:59;7.87;;;5.27;;
13959;SDS011;7052;51.050;3.716;2023-02-28T03:57:34;6.37;;;5.40;;
13959;SDS011;7052;51.050;3.716;2023-02-28T04:00:06;6.67;;;5.87;;
13959;SDS011;7052;51.050;3.716;2023-02-28T04:02:38;7.57;;;5.90;;
13959;SDS011;7052;51.050;3.716;2023-02-28T04:05:05;6.63;;;5.13;;
13959;SDS011;7052;51.050;3.716;2023-02-28T04:07:35;6.60;;;5.20;;
13959;SDS011;7052;51.050;3.716;2023-02-28T04:10:02;6.87;;;5.10;;
13959;SDS011;7052;51.050;3.716;2023-02-28T04:12:29;5.67;;;5.07;;
13959;SDS011;7052;51.050;3.716;2023-02-28T04:14:59;5.70;;;4.73;;
13959;SDS011;7052;51.050;3.716;2023-02-28T04:17:27;6.73;;;5.10;;
13959;SDS011;7052;51.050;3.716;2023-02-28T04:19:55;6.33;;;5.03;;
13959;SDS011;7052;51.050;3.716;2023-02-28T04:22:22;8.60;;;5.40;;
13959;SDS011;7052;51.050;3.716;2023-02-28T04:24:52;8.47;;;5.07;;
13959;SDS011;7052;51.050;3.716;2023-02-28T04:27:19;6.90;;;5.17;;
13959;SDS011;7052;51.050;3.716;2023-02-28T04:29:47;9.25;;;6.32;;
13959;SDS011;7052;51.050;3.716;2023-02-28T04:32:14;7.83;;;5.13;;
13959;SDS011;7052;51.050;3.716;2023-02-28T04:34:40;8.67;;;5.87;;
13959;SDS011;7052;51.050;3.716;2023-02-28T04:37:10;7.13;;;5.50;;
13959;SDS011;7052;51.050;3.716;2023-02-28T04:39:39;6.57;;;5.57;;
13959;SDS011;7052;51.050;3.716;2023-02-28T04:42:08;8.67;;;5.50;;
13959;SDS011;7052;51.050;3.716;2023-02-28T04:44:35;6.70;;;5.50;;
13959;SDS011;7052;51.050;3.716;2023-02-28T04:47:02;7.83;;;4.63;;
13959;SDS011;7052;51.050;3.716;2023-02-28T04:49:29;6.73;;;4.73;;
13959;SDS011;7052;51.050;3.716;2023-02-28T04:51:56;8.07;;;5.53;;
13959;SDS011;7052;51.050;3.716;2023-02-28T04:54:23;7.30;;;5.37;;
13959;SDS011;7052;51.050;3.716;2023-02-28T04:56:49;7.87;;;5.73;;
13959;SDS011;7052;51.050;3.716;2023-02-28T04:59:18;8.43;;;5.50;;
13959;SDS011;7052;51.050;3.716;2023-02-28T05:01:46;7.13;;;4.90;;
13959;SDS011;7052;51.050;3.716;2023-02-28T05:04:14;6.97;;;5.43;;
13959;SDS011;7052;51.050;3.716;2023-02-28T05:06:41;6.87;;;5.57;;
13959;SDS011;7052;51.050;3.716;2023-02-28T05:09:08;7.30;;;5.10;;
13959;SDS011;7052;51.050;3.716;2023-02-28T05:11:36;7.23;;;5.67;;
13959;SDS011;7052;51.050;3.716;2023-02-28T05:14:04;8.17;;;5.10;;
13959;SDS011;7052;51.050;3.716;2023-02-28T05:16:34;6.53;;;5.40;;
13959;SDS011;7052;51.050;3.716;2023-02-28T05:19:01;7.90;;;5.33;;
13959;SDS011;7052;51.050;3.716;2023-02-28T05:21:29;9.90;;;5.70;;
13959;SDS011;7052;51.050;3.716;2023-02-28T05:23:58;7.83;;;5.37;;
13959;SDS011;7052;51.050;3.716;2023-02-28T05:26:26;6.70;;;4.67;;
13959;SDS011;7052;51.050;3.716;2023-02-28T05:28:54;7.63;;;5.03;;
13959;SDS011;7052;51.050;3.716;2023-02-28T05:31:21;7.80;;;5.53;;
13959;SDS011;7052;51.050;3.716;2023-02-28T05:33:50;8.93;;;5.53;;
13959;SDS011;7052;51.050;3.716;2023-02-28T05:36:17;10.00;;;5.00;;
13959;SDS011;7052;51.050;3.716;2023-02-28T05:38:45;9.40;;;5.57;;
13959;SDS011;7052;51.050;3.716;2023-02-28T05:41:13;6.53;;;5.20;;
13959;SDS011;7052;51.050;3.716;2023-02-28T05:43:44;9.90;;;5.37;;
13959;SDS011;7052;51.050;3.716;2023-02-28T05:46:11;6.77;;;5.43;;
13959;SDS011;7052;51.050;3.716;2023-02-28T05:48:40;8.63;;;4.87;;
13959;SDS011;7052;51.050;3.716;2023-02-28T05:51:10;9.30;;;5.13;;
13959;SDS011;7052;51.050;3.716;2023-02-28T05:53:37;9.20;;;5.37;;
13959;SDS011;7052;51.050;3.716;2023-02-28T05:56:04;7.77;;;5.13;;
13959;SDS011;7052;51.050;3.716;2023-02-28T05:58:32;6.60;;;5.23;;
13959;SDS011;7052;51.050;3.716;2023-02-28T06:01:00;8.37;;;5.23;;
13959;SDS011;7052;51.050;3.716;2023-02-28T06:03:48;16.27;;;6.27;;
13959;SDS011;7052;51.050;3.716;2023-02-28T06:06:17;8.90;;;5.63;;
13959;SDS011;7052;51.050;3.716;2023-02-28T06:08:44;7.40;;;5.50;;
13959;SDS011;7052;51.050;3.716;2023-02-28T06:11:11;7.77;;;5.40;;
13959;SDS011;7052;51.050;3.716;2023-02-28T06:13:39;7.43;;;5.43;;
13959;SDS011;7052;51.050;3.716;2023-02-28T06:16:07;8.13;;;5.53;;
13959;SDS011;7052;51.050;3.716;2023-02-28T06:18:36;6.73;;;4.80;;
13959;SDS011;7052;51.050;3.716;2023-02-28T06:21:03;7.60;;;5.63;;
13959;SDS011;7052;51.050;3.716;2023-02-28T06:23:35;8.07;;;5.60;;
13959;SDS011;7052;51.050;3.716;2023-02-28T06:26:05;9.23;;;5.40;;
13959;SDS011;7052;51.050;3.716;2023-02-28T06:28:34;7.97;;;5.50;;
13959;SDS011;7052;51.050;3.716;2023-02-28T06:31:06;10.83;;;6.10;;
13959;SDS011;7052;51.050;3.716;2023-02-28T06:33:34;11.67;;;6.40;;
13959;SDS011;7052;51.050;3.716;2023-02-28T06:36:01;7.73;;;6.23;;
13959;SDS011;7052;51.050;3.716;2023-02-28T06:38:30;8.90;;;5.90;;
13959;SDS011;7052;51.050;3.716;2023-02-28T06:41:04;9.27;;;6.07;;
13959;SDS011;7052;51.050;3.716;2023-02-28T06:43:36;8.43;;;6.07;;
13959;SDS011;7052;51.050;3.716;2023-02-28T06:46:06;16.60;;;6.17;;
13959;SDS011;7052;51.050;3.716;2023-02-28T06:48:39;14.93;;;6.83;;
13959;SDS011;7052;51.050;3.716;2023-02-28T06:51:10;10.07;;;6.07;;
13959;SDS011;7052;51.050;3.716;2023-02-28T06:53:38;9.87;;;6.10;;
13959;SDS011;7052;51.050;3.716;2023-02-28T06:56:08;11.30;;;5.90;;
13959;SDS011;7052;51.050;3.716;2023-02-28T06:58:38;11.80;;;5.80;;
13959;SDS011;7052;51.050;3.716;2023-02-28T07:01:05;21.77;;;6.67;;
13959;SDS011;7052;51.050;3.716;2023-02-28T07:03:32;10.53;;;5.30;;
13959;SDS011;7052;51.050;3.716;2023-02-28T07:06:01;11.80;;;5.70;;
13959;SDS011;7052;51.050;3.716;2023-02-28T07:08:31;20.40;;;6.47;;
13959;SDS011;7052;51.050;3.716;2023-02-28T07:11:01;13.93;;;6.13;;
13959;SDS011;7052;51.050;3.716;2023-02-28T07:13:31;11.80;;;5.77;;
13959;SDS011;7052;51.050;3.716;2023-02-28T07:16:04;20.63;;;8.13;;
13959;SDS011;7052;51.050;3.716;2023-02-28T07:18:34;8.70;;;5.27;;
13959;SDS011;7052;51.050;3.716;2023-02-28T07:21:01;7.10;;;5.37;;
13959;SDS011;7052;51.050;3.716;2023-02-28T07:23:29;8.03;;;5.60;;
13959;SDS011;7052;51.050;3.716;2023-02-28T07:25:56;16.97;;;6.13;;
13959;SDS011;7052;51.050;3.716;2023-02-28T07:28:23;10.17;;;4.57;;
13959;SDS011;7052;51.050;3.716;2023-02-28T07:30:52;10.50;;;5.23;;
13959;SDS011;7052;51.050;3.716;2023-02-28T07:33:22;11.10;;;4.77;;
13959;SDS011;7052;51.050;3.716;2023-02-28T07:35:51;7.73;;;4.33;;
13959;SDS011;7052;51.050;3.716;2023-02-28T07:38:18;13.30;;;5.17;;
13959;SDS011;7052;51.050;3.716;2023-02-28T07:40:47;9.00;;;4.87;;
13959;SDS011;7052;51.050;3.716;2023-02-28T07:43:15;14.17;;;5.33;;
13959;SDS011;7052;51.050;3.716;2023-02-28T07:45:42;9.60;;;4.80;;
13959;SDS011;7052;51.050;3.716;2023-02-28T07:48:14;6.13;;;3.83;;
13959;SDS011;7052;51.050;3.716;2023-02-28T07:50:41;6.40;;;3.40;;
13959;SDS011;7052;51.050;3.716;2023-02-28T07:53:13;7.00;;;4.33;;
13959;SDS011;7052;51.050;3.716;2023-02-28T07:55:39;11.97;;;4.83;;
13959;SDS011;7052;51.050;3.716;2023-02-28T07:58:06;6.93;;;4.07;;
13959;SDS011;7052;51.050;3.716;2023-02-28T08:00:36;7.77;;;4.43;;
13959;SDS011;7052;51.050;3.716;2023-02-28T08:03:04;6.10;;;3.90;;
13959;SDS011;7052;51.050;3.716;2023-02-28T08:05:37;7.40;;;3.90;;
13959;SDS011;7052;51.050;3.716;2023-02-28T08:08:09;10.07;;;3.87;;
13959;SDS011;7052;51.050;3.716;2023-02-28T08:10:36;10.40;;;4.47;;
13959;SDS011;7052;51.050;3.716;2023-02-28T08:13:03;4.17;;;3.63;;
13959;SDS011;7052;51.050;3.716;2023-02-28T08:15:30;15.90;;;4.27;;
13959;SDS011;7052;51.050;3.716;2023-02-28T08:17:59;10.33;;;4.20;;
13959;SDS011;7052;51.050;3.716;2023-02-28T08:20:26;5.53;;;3.77;;
13959;SDS011;7052;51.050;3.716;2023-02-28T08:22:55;6.90;;;3.90;;
13959;SDS011;7052;51.050;3.716;2023-02-28T08:25:22;8.43;;;4.40;;
13959;SDS011;7052;51.050;3.716;2023-02-28T08:27:50;11.73;;;4.90;;
13959;SDS011;7052;51.050;3.716;2023-02-28T08:30:18;10.30;;;4.30;;
13959;SDS011;7052;51.050;3.716;2023-02-28T08:32:46;14.23;;;4.53;;
13959;SDS011;7052;51.050;3.716;2023-02-28T08:35:14;7.83;;;4.33;;
13959;SDS011;7052;51.050;3.716;2023-02-28T08:37:41;8.57;;;4.30;;
13959;SDS011;7052;51.050;3.716;2023-02-28T08:40:11;6.60;;;4.17;;
13959;SDS011;7052;51.050;3.716;2023-02-28T08:42:43;31.10;;;6.90;;
13959;SDS011;7052;51.050;3.716;2023-02-28T08:45:12;18.33;;;5.23;;
13959;SDS011;7052;51.050;3.716;2023-02-28T08:47:40;7.13;;;3.97;;
13959;SDS011;7052;51.050;3.716;2023-02-28T08:50:08;7.47;;;4.83;;
13959;SDS011;7052;51.050;3.716;2023-02-28T08:52:41;10.57;;;4.60;;
13959;SDS011;7052;51.050;3.716;2023-02-28T08:55:12;7.60;;;4.47;;
13959;SDS011;7052;51.050;3.716;2023-02-28T08:57:39;6.07;;;4.53;;
13959;SDS011;7052;51.050;3.716;2023-02-28T09:00:07;10.33;;;4.83;;
13959;SDS011;7052;51.050;3.716;2023-02-28T09:02:38;8.57;;;4.93;;
13959;SDS011;7052;51.050;3.716;2023-02-28T09:05:08;13.57;;;4.87;;
13959;SDS011;7052;51.050;3.716;2023-02-28T09:07:35;13.03;;;5.03;;
13959;SDS011;7052;51.050;3.716;2023-02-28T09:10:02;11.83;;;5.07;;
13959;SDS011;7052;51.050;3.716;2023-02-28T09:12:33;14.27;;;5.20;;
13959;SDS011;7052;51.050;3.716;2023-02-28T09:15:01;20.23;;;6.03;;
13959;SDS011;7052;51.050;3.716;2023-02-28T09:17:29;6.93;;;4.20;;
13959;SDS011;7052;51.050;3.716;2023-02-28T09:19:55;6.50;;;4.43;;
13959;SDS011;7052;51.050;3.716;2023-02-28T09:22:23;8.97;;;4.47;;
13959;SDS011;7052;51.050;3.716;2023-02-28T09:24:56;11.67;;;4.57;;
13959;SDS011;7052;51.050;3.716;2023-02-28T09:27:23;13.17;;;4.73;;
13959;SDS011;7052;51.050;3.716;2023-02-28T09:29:54;11.57;;;4.80;;
13959;SDS011;7052;51.050;3.716;2023-02-28T09:32:23;7.30;;;3.90;;
13959;SDS011;7052;51.050;3.716;2023-02-28T09:34:50;4.23;;;3.40;;
13959;SDS011;7052;51.050;3.716;2023-02-28T09:37:18;6.00;;;3.70;;
13959;SDS011;7052;51.050;3.716;2023-02-28T09:39:45;7.20;;;3.50;;
13959;SDS011;7052;51.050;3.716;2023-02-28T09:42:17;5.43;;;3.47;;
13959;SDS011;7052;51.050;3.716;2023-02-28T09:44:48;8.97;;;3.87;;
13959;SDS011;7052;51.050;3.716;2023-02-28T09:47:29;7.37;;;4.00;;
13959;SDS011;7052;51.050;3.716;2023-02-28T09:50:03;7.27;;;4.10;;
13959;SDS011;7052;51.050;3.716;2023-02-28T09:52:39;9.33;;;4.40;;
13959;SDS011;7052;51.050;3.716;2023-02-28T09:55:15;17.87;;;5.33;;
13959;SDS011;7052;51.050;3.716;2023-02-28T09:57:55;56.17;;;8.77;;
13959;SDS011;7052;51.050;3.716;2023-02-28T10:00:27;10.03;;;4.43;;
13959;SDS011;7052;51.050;3.716;2023-02-28T10:03:06;9.13;;;4.53;;
13959;SDS011;7052;51.050;3.716;2023-02-28T10:05:50;10.63;;;4.70;;
13959;SDS011;7052;51.050;3.716;2023-02-28T10:08:21;7.40;;;4.37;;
13959;SDS011;7052;51.050;3.716;2023-02-28T10:10:53;8.13;;;4.30;;
13959;SDS011;7052;51.050;3.716;2023-02-28T10:13:24;13.67;;;4.67;;
13959;SDS011;7052;51.050;3.716;2023-02-28T10:15:58;12.83;;;4.70;;
13959;SDS011;7052;51.050;3.716;2023-02-28T10:18:35;7.60;;;4.20;;
13959;SDS011;7052;51.050;3.716;2023-02-28T10:21:10;5.70;;;4.23;;
13959;SDS011;7052;51.050;3.716;2023-02-28T10:23:46;5.20;;;3.90;;
13959;SDS011;7052;51.050;3.716;2023-02-28T10:26:16;14.73;;;4.97;;
13959;SDS011;7052;51.050;3.716;2023-02-28T10:28:51;5.23;;;3.63;;
13959;SDS011;7052;51.050;3.716;2023-02-28T10:31:19;13.53;;;3.90;;
13959;SDS011;7052;51.050;3.716;2023-02-28T10:33:49;4.90;;;3.60;;
13959;SDS011;7052;51.050;3.716;2023-02-28T10:36:17;8.53;;;4.10;;
13959;SDS011;7052;51.050;3.716;2023-02-28T10:38:46;9.97;;;3.80;;
13959;SDS011;7052;51.050;3.716;2023-02-28T10:41:16;7.13;;;3.97;;
13959;SDS011;7052;51.050;3.716;2023-02-28T10:44:12;17.53;;;5.03;;
13959;SDS011;7052;51.050;3.716;2023-02-28T10:46:43;17.93;;;4.37;;
13959;SDS011;7052;51.050;3.716;2023-02-28T10:49:17;6.73;;;3.00;;
13959;SDS011;7052;51.050;3.716;2023-02-28T10:51:46;8.40;;;3.30;;
13959;SDS011;7052;51.050;3.716;2023-02-28T10:54:22;6.67;;;3.23;;
13959;SDS011;7052;51.050;3.716;2023-02-28T10:57:06;3.90;;;3.13;;
13959;SDS011;7052;51.050;3.716;2023-02-28T10:59:40;7.50;;;3.47;;
13959;SDS011;7052;51.050;3.716;2023-02-28T11:05:01;13.40;;;3.23;;
13959;SDS011;7052;51.050;3.716;2023-02-28T11:07:28;9.73;;;4.07;;
13959;SDS011;7052;51.050;3.716;2023-02-28T11:09:57;9.30;;;5.17;;
13959;SDS011;7052;51.050;3.716;2023-02-28T11:12:25;4.43;;;3.20;;
13959;SDS011;7052;51.050;3.716;2023-02-28T11:14:54;6.23;;;2.90;;
13959;SDS011;7052;51.050;3.716;2023-02-28T11:17:24;3.00;;;2.50;;
13959;SDS011;7052;51.050;3.716;2023-02-28T11:19:57;8.50;;;3.90;;
13959;SDS011;7052;51.050;3.716;2023-02-28T11:22:32;5.23;;;2.93;;
13959;SDS011;7052;51.050;3.716;2023-02-28T11:25:06;5.37;;;2.83;;
13959;SDS011;7052;51.050;3.716;2023-02-28T11:27:46;3.43;;;3.00;;
13959;SDS011;7052;51.050;3.716;2023-02-28T11:30:35;7.73;;;3.70;;
13959;SDS011;7052;51.050;3.716;2023-02-28T11:33:19;3.20;;;2.70;;
13959;SDS011;7052;51.050;3.716;2023-02-28T11:36:01;6.53;;;2.73;;
13959;SDS011;7052;51.050;3.716;2023-02-28T11:38:35;6.50;;;3.10;;
13959;SDS011;7052;51.050;3.716;2023-02-28T11:41:05;3.50;;;2.50;;
13959;SDS011;7052;51.050;3.716;2023-02-28T11:43:53;4.53;;;2.50;;
13959;SDS011;7052;51.050;3.716;2023-02-28T11:46:52;3.30;;;2.33;;
13959;SDS011;7052;51.050;3.716;2023-02-28T11:49:27;6.13;;;3.17;;
13959;SDS011;7052;51.050;3.716;2023-02-28T11:52:14;5.83;;;2.57;;
13959;SDS011;7052;51.050;3.716;2023-02-28T11:54:50;7.90;;;3.57;;
13959;SDS011;7052;51.050;3.716;2023-02-28T11:57:31;14.30;;;4.30;;
13959;SDS011;7052;51.050;3.716;2023-02-28T12:00:15;9.57;;;2.80;;
13959;SDS011;7052;51.050;3.716;2023-02-28T12:02:58;6.83;;;2.80;;
13959;SDS011;7052;51.050;3.716;2023-02-28T12:05:36;3.93;;;2.87;;
13959;SDS011;7052;51.050;3.716;2023-02-28T12:08:18;5.83;;;2.30;;
13959;SDS011;7052;51.050;3.716;2023-02-28T12:11:02;3.93;;;2.43;;
13959;SDS011;7052;51.050;3.716;2023-02-28T12:13:37;2.40;;;2.20;;
13959;SDS011;7052;51.050;3.716;2023-02-28T12:16:18;4.80;;;2.27;;
13959;SDS011;7052;51.050;3.716;2023-02-28T12:19:07;4.17;;;2.60;;
13959;SDS011;7052;51.050;3.716;2023-02-28T12:21:57;8.90;;;3.43;;
13959;SDS011;7052;51.050;3.716;2023-02-28T12:24:52;4.60;;;3.00;;
13959;SDS011;7052;51.050;3.716;2023-02-28T12:27:29;3.30;;;2.60;;
13959;SDS011;7052;51.050;3.716;2023-02-28T12:30:03;5.67;;;2.63;;
13959;SDS011;7052;51.050;3.716;2023-02-28T12:32:33;8.20;;;2.87;;
13959;SDS011;7052;51.050;3.716;2023-02-28T12:35:06;5.23;;;2.70;;
13959;SDS011;7052;51.050;3.716;2023-02-28T12:37:40;3.73;;;2.50;;
13959;SDS011;7052;51.050;3.716;2023-02-28T12:40:41;5.93;;;2.40;;
13959;SDS011;7052;51.050;3.716;2023-02-28T12:43:12;5.03;;;2.27;;
13959;SDS011;7052;51.050;3.716;2023-02-28T12:45:43;3.70;;;2.10;;
13959;SDS011;7052;51.050;3.716;2023-02-28T12:48:14;3.03;;;2.13;;
13959;SDS011;7052;51.050;3.716;2023-02-28T12:50:47;5.23;;;2.70;;
13959;SDS011;7052;51.050;3.716;2023-02-28T12:53:15;5.57;;;2.90;;
13959;SDS011;7052;51.050;3.716;2023-02-28T12:55:50;5.20;;;2.43;;
13959;SDS011;7052;51.050;3.716;2023-02-28T12:58:27;4.43;;;2.30;;
13959;SDS011;7052;51.050;3.716;2023-02-28T13:04:25;6.50;;;2.30;;
13959;SDS011;7052;51.050;3.716;2023-02-28T13:10:39;3.17;;;2.20;;
13959;SDS011;7052;51.050;3.716;2023-02-28T13:13:11;4.37;;;2.50;;
13959;SDS011;7052;51.050;3.716;2023-02-28T13:15:41;2.77;;;2.10;;
13959;SDS011;7052;51.050;3.716;2023-02-28T13:18:28;3.43;;;2.23;;
13959;SDS011;7052;51.050;3.716;2023-02-28T13:20:57;2.97;;;2.27;;
13959;SDS011;7052;51.050;3.716;2023-02-28T13:23:40;2.40;;;2.20;;
13959;SDS011;7052;51.050;3.716;2023-02-28T13:26:23;5.63;;;2.60;;
13959;SDS011;7052;51.050;3.716;2023-02-28T13:29:31;5.73;;;2.90;;
13959;SDS011;7052;51.050;3.716;2023-02-28T13:35:20;3.43;;;2.20;;
13959;SDS011;7052;51.050;3.716;2023-02-28T13:38:25;5.67;;;2.40;;
13959;SDS011;7052;51.050;3.716;2023-02-28T13:44:06;4.07;;;2.47;;
13959;SDS011;7052;51.050;3.716;2023-02-28T13:46:36;7.23;;;2.77;;
13959;SDS011;7052;51.050;3.716;2023-02-28T13:49:27;7.27;;;3.00;;
13959;SDS011;7052;51.050;3.716;2023-02-28T13:52:02;2.17;;;1.87;;
13959;SDS011;7052;51.050;3.716;2023-02-28T13:54:43;6.27;;;2.57;;
13959;SDS011;7052;51.050;3.716;2023-02-28T13:57:23;6.70;;;2.47;;
13959;SDS011;7052;51.050;3.716;2023-02-28T14:00:02;5.57;;;2.20;;
13959;SDS011;7052;51.050;3.716;2023-02-28T14:02:59;2.90;;;2.10;;
13959;SDS011;7052;51.050;3.716;2023-02-28T14:05:36;6.03;;;2.90;;
13959;SDS011;7052;51.050;3.716;2023-02-28T14:08:05;3.93;;;2.40;;
13959;SDS011;7052;51.050;3.716;2023-02-28T14:10:40;4.77;;;2.73;;
13959;SDS011;7052;51.050;3.716;2023-02-28T14:13:36;45.70;;;7.73;;
13959;SDS011;7052;51.050;3.716;2023-02-28T14:16:09;5.13;;;2.97;;
13959;SDS011;7052;51.050;3.716;2023-02-28T14:18:48;3.20;;;2.33;;
13959;SDS011;7052;51.050;3.716;2023-02-28T14:21:22;3.10;;;2.27;;
13959;SDS011;7052;51.050;3.716;2023-02-28T14:24:03;2.67;;;2.23;;
13959;SDS011;7052;51.050;3.716;2023-02-28T14:27:14;4.73;;;2.67;;
13959;SDS011;7052;51.050;3.716;2023-02-28T14:29:59;3.70;;;2.50;;
13959;SDS011;7052;51.050;3.716;2023-02-28T14:32:59;12.60;;;4.20;;
13959;SDS011;7052;51.050;3.716;2023-02-28T14:35:49;6.77;;;3.53;;
13959;SDS011;7052;51.050;3.716;2023-02-28T14:38:30;3.97;;;3.03;;
13959;SDS011;7052;51.050;3.716;2023-02-28T14:41:03;4.53;;;2.87;;
13959;SDS011;7052;51.050;3.716;2023-02-28T14:43:32;9.80;;;3.40;;
13959;SDS011;7052;51.050;3.716;2023-02-28T14:46:02;5.10;;;2.70;;
13959;SDS011;7052;51.050;3.716;2023-02-28T14:57:55;6.90;;;3.07;;
13959;SDS011;7052;51.050;3.716;2023-02-28T15:00:24;4.97;;;2.80;;
13959;SDS011;7052;51.050;3.716;2023-02-28T15:02:53;10.97;;;3.83;;
13959;SDS011;7052;51.050;3.716;2023-02-28T15:05:26;4.13;;;3.07;;
13959;SDS011;7052;51.050;3.716;2023-02-28T15:08:02;4.43;;;3.07;;
13959;SDS011;7052;51.050;3.716;2023-02-28T15:10:35;10.17;;;2.97;;
13959;SDS011;7052;51.050;3.716;2023-02-28T15:13:04;4.20;;;2.90;;
13959;SDS011;7052;51.050;3.716;2023-02-28T15:15:43;3.30;;;2.83;;
13959;SDS011;7052;51.050;3.716;2023-02-28T15:18:15;4.57;;;3.00;;
13959;SDS011;7052;51.050;3.716;2023-02-28T15:20:52;3.37;;;2.27;;
13959;SDS011;7052;51.050;3.716;2023-02-28T15:23:21;7.90;;;3.23;;
13959;SDS011;7052;51.050;3.716;2023-02-28T15:25:51;4.50;;;3.20;;
13959;SDS011;7052;51.050;3.716;2023-02-28T15:28:20;5.17;;;3.00;;
13959;SDS011;7052;51.050;3.716;2023-02-28T15:30:51;3.60;;;3.03;;
13959;SDS011;7052;51.050;3.716;2023-02-28T15:33:21;7.27;;;2.90;;
13959;SDS011;7052;51.050;3.716;2023-02-28T15:35:50;9.57;;;3.20;;
13959;SDS011;7052;51.050;3.716;2023-02-28T15:38:18;3.83;;;3.17;;
13959;SDS011;7052;51.050;3.716;2023-02-28T15:40:56;4.30;;;3.03;;
13959;SDS011;7052;51.050;3.716;2023-02-28T15:43:24;3.57;;;3.00;;
13959;SDS011;7052;51.050;3.716;2023-02-28T15:45:55;3.77;;;3.00;;
13959;SDS011;7052;51.050;3.716;2023-02-28T15:48:24;5.67;;;3.53;;
13959;SDS011;7052;51.050;3.716;2023-02-28T15:50:55;5.93;;;3.60;;
13959;SDS011;7052;51.050;3.716;2023-02-28T15:53:25;4.00;;;3.00;;
13959;SDS011;7052;51.050;3.716;2023-02-28T15:56:12;7.33;;;3.40;;
13959;SDS011;7052;51.050;3.716;2023-02-28T15:58:48;6.53;;;3.50;;
13959;SDS011;7052;51.050;3.716;2023-02-28T16:01:24;5.20;;;3.20;;